Time;durP1;ratioP1;P1;durP2;ratioP2;P2;SDS_P1;SDS_P2;PMS_P1;PMS_P2;Temp;Humidity;BMP_temperature;BMP_pressure;BME280_temperature;BME280_humidity;BME280_pressure;Samples;Min_cycle;Max_cycle;Signal;HPM_P1;HPM_P2
2021/07/07 00:00:31;;;;;;;14.20;5.97;;;27.90;66.60;;;;;;5055916;28;20398;-76
2021/07/07 00:02:57;;;;;;;12.05;6.43;;;27.90;66.80;;;;;;5055761;28;20143;-75
2021/07/07 00:05:23;;;;;;;12.18;6.35;;;27.90;67.00;;;;;;5055636;28;20083;-76
2021/07/07 00:07:49;;;;;;;15.30;6.60;;;27.90;67.30;;;;;;5055493;28;20020;-75
2021/07/07 00:10:17;;;;;;;14.85;6.72;;;27.90;67.20;;;;;;5055665;28;20039;-76
2021/07/07 00:12:43;;;;;;;10.02;6.25;;;27.80;67.30;;;;;;5056891;28;20481;-74
2021/07/07 00:15:15;;;;;;;11.82;6.05;;;27.80;67.80;;;;;;5058170;28;20021;-76
2021/07/07 00:17:41;;;;;;;10.95;6.32;;;27.80;67.80;;;;;;5054985;28;20024;-77
2021/07/07 00:20:09;;;;;;;13.98;7.07;;;27.80;67.80;;;;;;5055413;28;20025;-75
2021/07/07 00:22:35;;;;;;;13.65;6.00;;;27.70;67.70;;;;;;5055323;28;20013;-76
2021/07/07 00:25:02;;;;;;;16.75;6.63;;;27.70;66.90;;;;;;5055331;28;20445;-76
2021/07/07 00:27:27;;;;;;;10.80;6.15;;;27.70;66.50;;;;;;5055471;28;20060;-76
2021/07/07 00:29:55;;;;;;;12.00;6.60;;;27.70;66.30;;;;;;5055618;28;20057;-76
2021/07/07 00:32:21;;;;;;;14.40;6.53;;;27.70;67.30;;;;;;5055357;28;20032;-76
2021/07/07 00:34:47;;;;;;;11.68;6.38;;;27.70;66.80;;;;;;5055174;28;20068;-75
2021/07/07 00:37:13;;;;;;;14.48;7.07;;;27.70;67.00;;;;;;5055116;28;20037;-76
2021/07/07 00:39:39;;;;;;;10.82;6.25;;;27.70;67.10;;;;;;5055386;28;20537;-76
2021/07/07 00:42:06;;;;;;;18.15;6.70;;;27.70;67.30;;;;;;5055057;28;20031;-76
2021/07/07 00:44:31;;;;;;;10.40;5.72;;;27.70;67.20;;;;;;5054914;28;20021;-76
2021/07/07 00:46:57;;;;;;;13.43;6.22;;;27.70;67.30;;;;;;5054979;28;20024;-77
2021/07/07 00:49:23;;;;;;;11.05;6.10;;;27.70;67.60;;;;;;5054768;28;20028;-76
2021/07/07 00:51:49;;;;;;;13.73;6.53;;;27.80;67.80;;;;;;5054884;28;20025;-75
2021/07/07 00:54:15;;;;;;;12.30;6.70;;;27.80;67.90;;;;;;5054923;28;20032;-76
2021/07/07 00:56:43;;;;;;;13.15;6.97;;;27.80;68.10;;;;;;5055053;28;20029;-76
2021/07/07 00:59:09;;;;;;;10.13;6.78;;;27.70;68.50;;;;;;5054982;28;20052;-75
2021/07/07 01:01:36;;;;;;;17.42;7.28;;;27.70;69.00;;;;;;5055011;28;20029;-76
2021/07/07 01:04:02;;;;;;;11.75;7.10;;;27.70;69.10;;;;;;5054990;28;20029;-76
2021/07/07 01:06:28;;;;;;;15.35;7.60;;;27.60;69.30;;;;;;5054596;28;20013;-76
2021/07/07 01:08:54;;;;;;;14.32;7.40;;;27.60;69.30;;;;;;5052940;28;20056;-75
2021/07/07 01:11:20;;;;;;;11.23;6.60;;;27.50;69.00;;;;;;5054444;28;20021;-76
2021/07/07 01:13:45;;;;;;;14.90;6.95;;;27.50;68.70;;;;;;5054920;28;20033;-76
2021/07/07 01:16:11;;;;;;;12.50;7.00;;;27.60;68.90;;;;;;5054560;28;20108;-76
2021/07/07 01:18:37;;;;;;;11.32;7.10;;;27.50;68.60;;;;;;5054631;28;20033;-76
2021/07/07 01:21:04;;;;;;;11.23;6.63;;;27.50;69.00;;;;;;5054624;28;20017;-76
2021/07/07 01:23:30;;;;;;;10.18;7.28;;;27.40;69.00;;;;;;5054953;28;20021;-76
2021/07/07 01:25:56;;;;;;;16.88;7.60;;;27.40;69.10;;;;;;5054367;28;20052;-76
2021/07/07 01:28:22;;;;;;;19.63;6.75;;;27.40;69.00;;;;;;5054402;28;20029;-75
2021/07/07 01:30:48;;;;;;;13.52;6.57;;;27.50;67.90;;;;;;5054151;28;20063;-76
2021/07/07 01:33:14;;;;;;;16.33;7.28;;;27.50;68.00;;;;;;5054418;28;20044;-76
2021/07/07 01:35:39;;;;;;;17.10;6.70;;;27.50;67.60;;;;;;5053086;28;20238;-76
2021/07/07 01:38:05;;;;;;;12.10;6.82;;;27.50;66.70;;;;;;5054477;28;20028;-76
2021/07/07 01:40:31;;;;;;;14.50;7.90;;;27.50;66.60;;;;;;5054324;28;20017;-75
2021/07/07 01:42:58;;;;;;;14.27;7.25;;;27.50;66.90;;;;;;5054299;28;20021;-75
2021/07/07 01:45:25;;;;;;;16.67;8.35;;;27.50;66.70;;;;;;5054197;28;20497;-75
2021/07/07 01:47:52;;;;;;;15.20;7.55;;;27.40;66.80;;;;;;5055395;28;20028;-75
2021/07/07 01:50:20;;;;;;;12.57;6.97;;;27.40;66.30;;;;;;5056220;28;20025;-75
2021/07/07 01:52:46;;;;;;;12.15;6.65;;;27.30;66.10;;;;;;5055118;28;20100;-76
2021/07/07 01:55:15;;;;;;;14.65;6.30;;;27.30;65.90;;;;;;5053796;28;20115;-76
2021/07/07 01:57:45;;;;;;;15.02;5.78;;;27.30;65.50;;;;;;5053708;28;20032;-75
2021/07/07 02:00:15;;;;;;;17.40;6.13;;;27.30;65.00;;;;;;5056103;28;20016;-76
2021/07/07 02:02:42;;;;;;;16.15;5.53;;;27.30;65.40;;;;;;5057251;28;20112;-75
2021/07/07 02:05:09;;;;;;;15.65;5.93;;;27.30;63.90;;;;;;5054053;28;20041;-76
2021/07/07 02:07:34;;;;;;;13.13;6.55;;;27.30;63.70;;;;;;5053853;28;20036;-75
2021/07/07 02:10:01;;;;;;;19.45;6.22;;;27.30;63.50;;;;;;5053257;28;20045;-75
2021/07/07 02:12:27;;;;;;;14.75;6.47;;;27.30;62.90;;;;;;5053300;28;20029;-75
2021/07/07 02:14:53;;;;;;;20.05;7.07;;;27.20;62.90;;;;;;5053526;28;20031;-75
2021/07/07 02:17:18;;;;;;;17.15;6.57;;;27.20;62.90;;;;;;5053398;28;20070;-75
2021/07/07 02:19:44;;;;;;;15.60;6.60;;;27.20;62.90;;;;;;5053129;28;20436;-76
2021/07/07 02:22:10;;;;;;;13.35;6.28;;;27.10;62.80;;;;;;5053137;28;20390;-75
2021/07/07 02:24:35;;;;;;;14.80;6.38;;;27.10;62.10;;;;;;5053171;28;20021;-75
2021/07/07 02:27:01;;;;;;;11.85;5.88;;;27.10;62.80;;;;;;5053216;28;20032;-75
2021/07/07 02:29:27;;;;;;;16.15;6.20;;;27.10;62.90;;;;;;5053159;28;20454;-75
2021/07/07 02:31:53;;;;;;;13.38;5.90;;;27.00;62.30;;;;;;5053254;28;20032;-76
2021/07/07 02:34:18;;;;;;;11.20;6.20;;;27.00;62.60;;;;;;5051953;28;20025;-74
2021/07/07 02:36:44;;;;;;;16.83;6.35;;;27.00;62.60;;;;;;5052919;28;20033;-75
2021/07/07 02:39:10;;;;;;;13.85;6.30;;;27.00;62.40;;;;;;5052894;28;20086;-74
2021/07/07 02:41:35;;;;;;;14.02;5.53;;;27.00;62.40;;;;;;5053325;28;20036;-74
2021/07/07 02:44:01;;;;;;;13.00;6.07;;;27.10;62.50;;;;;;5053156;28;20030;-75
2021/07/07 02:46:27;;;;;;;13.23;5.07;;;27.00;62.60;;;;;;5051771;28;20367;-74
2021/07/07 02:48:52;;;;;;;13.93;5.75;;;27.00;62.70;;;;;;5053109;28;20109;-73
2021/07/07 02:51:18;;;;;;;13.90;6.18;;;27.00;62.50;;;;;;5053016;28;20370;-75
2021/07/07 02:53:44;;;;;;;11.10;5.35;;;27.00;62.70;;;;;;5053109;28;20051;-74
2021/07/07 02:56:09;;;;;;;16.13;6.32;;;26.90;63.00;;;;;;5053069;28;20090;-75
2021/07/07 02:58:35;;;;;;;12.60;5.82;;;26.90;63.00;;;;;;5052923;28;20021;-74
2021/07/07 03:01:01;;;;;;;11.98;5.40;;;26.90;63.20;;;;;;5053046;28;20083;-75
2021/07/07 03:03:27;;;;;;;14.45;5.85;;;26.90;63.00;;;;;;5053027;28;20060;-76
2021/07/07 03:05:58;;;;;;;11.27;6.18;;;26.90;63.30;;;;;;5053178;28;20060;-75
2021/07/07 03:08:29;;;;;;;13.02;5.45;;;26.80;63.20;;;;;;5052782;28;20041;-74
2021/07/07 03:10:56;;;;;;;11.48;5.55;;;26.80;63.30;;;;;;5051603;28;20120;-74
2021/07/07 03:13:22;;;;;;;10.93;5.00;;;26.90;63.30;;;;;;5053211;28;20108;-75
2021/07/07 03:15:49;;;;;;;10.45;5.63;;;26.80;62.20;;;;;;5052627;28;20033;-75
2021/07/07 03:18:16;;;;;;;11.77;5.10;;;26.80;63.00;;;;;;5052710;28;20021;-75
2021/07/07 03:20:44;;;;;;;14.38;5.05;;;26.80;62.00;;;;;;5052578;28;20120;-76
2021/07/07 03:23:10;;;;;;;13.52;5.05;;;26.80;62.40;;;;;;5052485;28;20028;-75
2021/07/07 03:25:37;;;;;;;11.88;5.22;;;26.80;62.50;;;;;;5052611;28;20521;-75
2021/07/07 03:28:04;;;;;;;13.80;5.55;;;26.70;62.10;;;;;;5052485;28;20025;-76
2021/07/07 03:30:30;;;;;;;9.82;4.47;;;26.70;62.60;;;;;;5052525;28;20041;-75
2021/07/07 03:32:57;;;;;;;16.67;5.15;;;26.70;62.50;;;;;;5052609;28;20024;-75
2021/07/07 03:35:23;;;;;;;17.00;5.40;;;26.80;63.00;;;;;;5052331;28;20104;-75
2021/07/07 03:37:50;;;;;;;12.48;4.80;;;26.70;62.40;;;;;;5052501;28;20021;-76
2021/07/07 03:40:16;;;;;;;12.80;5.25;;;26.70;62.40;;;;;;5052624;28;20029;-76
2021/07/07 03:42:43;;;;;;;12.77;4.47;;;26.70;62.70;;;;;;5052552;28;20067;-74
2021/07/07 03:45:14;;;;;;;11.75;5.00;;;26.70;62.70;;;;;;5052946;28;20508;-75
2021/07/07 03:47:40;;;;;;;10.95;4.80;;;26.70;62.70;;;;;;5055134;28;20104;-74
2021/07/07 03:50:07;;;;;;;9.93;4.90;;;26.60;62.80;;;;;;5053217;28;20448;-77
2021/07/07 03:52:34;;;;;;;11.40;5.53;;;26.70;63.00;;;;;;5055864;28;20025;-74
2021/07/07 03:55:00;;;;;;;16.95;5.35;;;26.70;62.40;;;;;;5055650;28;20128;-75
2021/07/07 03:57:26;;;;;;;13.60;4.75;;;26.60;62.20;;;;;;5055782;28;20108;-75
2021/07/07 03:59:52;;;;;;;14.45;5.60;;;26.70;62.60;;;;;;5056048;28;20067;-74
2021/07/07 04:02:17;;;;;;;10.52;4.80;;;26.50;62.50;;;;;;5055762;28;20025;-75
2021/07/07 04:04:43;;;;;;;14.45;5.85;;;26.60;62.90;;;;;;5055715;28;20039;-75
2021/07/07 04:07:10;;;;;;;14.85;5.90;;;26.60;62.60;;;;;;5055753;28;20068;-76
2021/07/07 04:09:36;;;;;;;12.65;6.18;;;26.50;62.70;;;;;;5055603;28;20136;-74
2021/07/07 04:12:02;;;;;;;15.02;6.63;;;26.60;62.80;;;;;;5055732;28;20055;-75
2021/07/07 04:14:28;;;;;;;19.58;6.43;;;26.60;62.80;;;;;;5055446;28;20025;-77
2021/07/07 04:16:56;;;;;;;17.27;6.50;;;26.60;62.70;;;;;;5055312;28;20033;-75
2021/07/07 04:19:23;;;;;;;14.80;5.78;;;26.60;62.50;;;;;;5055277;28;20024;-75
2021/07/07 04:21:50;;;;;;;13.27;5.82;;;26.60;62.40;;;;;;5055243;28;20069;-75
2021/07/07 04:24:16;;;;;;;9.63;5.00;;;26.70;62.40;;;;;;5053966;28;20021;-75
2021/07/07 04:26:42;;;;;;;12.73;5.20;;;26.70;62.40;;;;;;5055164;28;20039;-76
2021/07/07 04:29:08;;;;;;;14.55;5.35;;;26.70;62.30;;;;;;5055255;28;20033;-76
2021/07/07 04:31:35;;;;;;;12.77;5.38;;;26.70;62.30;;;;;;5055234;28;20013;-75
2021/07/07 04:34:01;;;;;;;11.30;5.57;;;26.60;61.90;;;;;;5055142;28;20091;-75
2021/07/07 04:36:27;;;;;;;13.43;4.95;;;26.50;62.00;;;;;;5054831;28;20425;-75
2021/07/07 04:38:52;;;;;;;8.93;4.90;;;26.50;62.20;;;;;;5055205;28;20488;-74
2021/07/07 04:41:18;;;;;;;12.15;5.50;;;26.50;62.80;;;;;;5054995;28;20036;-76
2021/07/07 04:43:44;;;;;;;8.73;5.03;;;26.50;62.20;;;;;;5054926;28;20594;-76
2021/07/07 04:46:09;;;;;;;9.73;4.88;;;26.50;62.10;;;;;;5054966;28;20028;-76
2021/07/07 04:48:35;;;;;;;10.32;4.85;;;26.50;62.40;;;;;;5054998;28;20025;-76
2021/07/07 04:51:01;;;;;;;11.05;5.00;;;26.50;62.40;;;;;;5054833;28;20025;-76
2021/07/07 04:53:27;;;;;;;10.15;5.55;;;26.50;62.30;;;;;;5054886;28;20028;-76
2021/07/07 04:55:53;;;;;;;17.30;5.32;;;26.60;62.30;;;;;;5054389;28;20037;-75
2021/07/07 04:58:19;;;;;;;13.77;5.00;;;26.70;62.10;;;;;;5057546;28;20031;-76
2021/07/07 05:00:44;;;;;;;13.40;5.45;;;26.70;61.90;;;;;;5064949;28;20501;-75
2021/07/07 05:03:10;;;;;;;17.30;5.05;;;26.70;61.80;;;;;;5063465;28;20024;-76
2021/07/07 05:05:36;;;;;;;18.10;6.13;;;26.80;61.80;;;;;;5065705;28;20032;-75
2021/07/07 05:08:01;;;;;;;14.20;5.38;;;26.80;61.70;;;;;;5074025;28;20031;-74
2021/07/07 05:10:30;;;;;;;13.35;5.15;;;26.80;61.80;;;;;;5074340;28;20029;-75
2021/07/07 05:12:57;;;;;;;11.45;5.35;;;26.90;61.60;;;;;;5074587;28;20020;-73
2021/07/07 05:15:23;;;;;;;14.73;5.30;;;27.00;61.50;;;;;;5074199;28;20040;-77
2021/07/07 05:17:50;;;;;;;15.70;5.88;;;27.00;61.40;;;;;;5074284;28;20020;-79
2021/07/07 05:20:17;;;;;;;8.90;5.18;;;27.20;61.40;;;;;;5074298;28;20029;-82
2021/07/07 05:22:44;;;;;;;13.68;5.50;;;27.20;61.10;;;;;;5074812;28;20074;-81
2021/07/07 05:25:11;;;;;;;12.90;5.88;;;27.40;60.70;;;;;;5074940;28;20027;-82
2021/07/07 05:27:37;;;;;;;14.25;5.72;;;27.70;60.30;;;;;;5074067;28;20023;-79
2021/07/07 05:30:05;;;;;;;12.40;5.68;;;28.00;59.50;;;;;;5074365;28;20024;-81
2021/07/07 05:32:31;;;;;;;11.50;5.78;;;28.40;58.80;;;;;;5074244;28;20028;-78
2021/07/07 05:34:57;;;;;;;12.13;5.15;;;28.80;57.50;;;;;;5058725;28;20033;-77
2021/07/07 05:37:23;;;;;;;12.20;5.28;;;29.10;57.20;;;;;;5053785;28;20082;-80
2021/07/07 05:39:50;;;;;;;15.27;6.22;;;29.50;56.60;;;;;;5056493;28;20151;-82
2021/07/07 05:42:19;;;;;;;11.93;5.43;;;29.90;56.10;;;;;;5073837;28;20028;-80
2021/07/07 05:44:46;;;;;;;13.38;5.30;;;30.20;55.10;;;;;;5073856;28;20016;-81
2021/07/07 05:47:12;;;;;;;12.05;5.75;;;30.50;54.80;;;;;;5074016;28;20029;-82
2021/07/07 05:49:38;;;;;;;10.40;5.70;;;30.70;54.00;;;;;;5065851;28;20458;-81
2021/07/07 05:52:04;;;;;;;12.90;5.80;;;31.00;53.40;;;;;;5071869;28;20036;-81
2021/07/07 05:54:31;;;;;;;16.15;5.68;;;31.10;52.90;;;;;;5063653;28;20100;-82
2021/07/07 05:56:57;;;;;;;12.93;5.75;;;31.30;52.80;;;;;;5066238;28;20025;-80
2021/07/07 05:59:23;;;;;;;12.48;5.43;;;31.60;52.40;;;;;;5067562;28;20025;-82
2021/07/07 06:01:49;;;;;;;14.10;5.78;;;31.80;51.90;;;;;;5057549;28;20031;-80
2021/07/07 06:04:15;;;;;;;12.48;5.47;;;32.00;51.50;;;;;;5055351;28;20107;-81
2021/07/07 06:06:40;;;;;;;11.27;5.47;;;32.20;51.30;;;;;;5058669;28;20056;-81
2021/07/07 06:09:06;;;;;;;16.38;5.85;;;32.10;51.10;;;;;;5053312;28;20041;-81
2021/07/07 06:11:32;;;;;;;16.10;5.93;;;32.10;51.00;;;;;;5053204;28;20045;-81
2021/07/07 06:13:58;;;;;;;11.70;5.38;;;32.20;51.20;;;;;;5050837;28;20067;-81
2021/07/07 06:16:23;;;;;;;12.30;5.07;;;32.40;50.80;;;;;;5052888;28;20470;-81
2021/07/07 06:18:50;;;;;;;15.90;5.35;;;32.60;50.70;;;;;;5051648;28;20021;-80
2021/07/07 06:21:16;;;;;;;11.60;5.80;;;32.70;50.60;;;;;;5053227;28;20036;-82
2021/07/07 06:23:42;;;;;;;16.20;5.32;;;33.00;50.50;;;;;;5053130;28;20021;-82
2021/07/07 06:26:08;;;;;;;14.18;5.53;;;33.10;49.80;;;;;;5070452;28;20045;-81
2021/07/07 06:28:33;;;;;;;21.20;6.68;;;33.10;49.70;;;;;;5073613;28;20012;-81
2021/07/07 06:30:59;;;;;;;11.90;5.85;;;33.20;50.10;;;;;;5073964;28;20028;-83
2021/07/07 06:33:25;;;;;;;14.77;5.72;;;33.40;49.10;;;;;;5073647;28;20476;-79
2021/07/07 06:35:50;;;;;;;21.67;5.93;;;33.40;49.00;;;;;;5062601;28;20077;-79
2021/07/07 06:38:16;;;;;;;232.75;27.73;;;33.50;48.70;;;;;;5053154;28;20044;-77
2021/07/07 06:40:42;;;;;;;87.35;13.13;;;33.70;48.30;;;;;;5052921;28;20155;-80
2021/07/07 06:43:08;;;;;;;42.60;8.82;;;33.80;47.40;;;;;;5052754;28;20500;-79
2021/07/07 06:45:37;;;;;;;32.53;7.25;;;34.00;47.20;;;;;;5052887;28;20509;-79
2021/07/07 06:48:07;;;;;;;52.95;8.90;;;34.10;47.00;;;;;;5052755;28;20545;-80
2021/07/07 06:50:34;;;;;;;42.13;8.55;;;34.10;47.10;;;;;;5051654;28;20021;-80
2021/07/07 06:53:01;;;;;;;20.83;6.00;;;34.20;46.90;;;;;;5052583;28;20025;-79
2021/07/07 06:55:27;;;;;;;40.63;7.20;;;34.40;46.50;;;;;;5053018;28;20443;-79
2021/07/07 06:57:53;;;;;;;19.98;4.88;;;34.50;46.40;;;;;;5052598;28;20036;-79
2021/07/07 07:00:20;;;;;;;34.60;6.40;;;34.60;46.30;;;;;;5053308;28;20051;-80
2021/07/07 07:02:46;;;;;;;17.98;5.10;;;34.70;45.90;;;;;;5053163;28;20378;-79
2021/07/07 07:05:13;;;;;;;131.43;15.50;;;34.80;46.00;;;;;;5052898;28;20394;-79
2021/07/07 07:07:39;;;;;;;69.22;11.13;;;34.80;45.80;;;;;;5052945;28;20036;-80
2021/07/07 07:10:06;;;;;;;130.35;18.20;;;34.70;46.20;;;;;;5052285;28;20045;-79
2021/07/07 07:12:32;;;;;;;46.42;8.30;;;34.50;46.10;;;;;;5052538;28;20356;-80
2021/07/07 07:14:58;;;;;;;64.80;9.60;;;34.60;46.40;;;;;;5052974;28;20036;-80
2021/07/07 07:17:25;;;;;;;26.05;6.50;;;34.60;46.30;;;;;;5052636;28;20029;-78
2021/07/07 07:19:51;;;;;;;20.98;5.82;;;34.60;46.30;;;;;;5052462;28;20490;-81
2021/07/07 07:22:17;;;;;;;20.25;4.70;;;34.60;46.20;;;;;;5052786;28;20108;-80
2021/07/07 07:24:44;;;;;;;90.80;10.90;;;34.70;46.20;;;;;;5051897;28;20111;-78
2021/07/07 07:27:11;;;;;;;48.78;7.72;;;34.70;46.00;;;;;;5054723;28;20424;-80
2021/07/07 07:29:38;;;;;;;42.05;7.07;;;34.70;45.90;;;;;;5055689;28;20504;-79
2021/07/07 07:32:05;;;;;;;21.10;5.38;;;34.70;45.90;;;;;;5055842;28;20491;-79
2021/07/07 07:34:31;;;;;;;25.95;5.65;;;34.80;46.10;;;;;;5056216;28;20025;-79
2021/07/07 07:37:02;;;;;;;36.70;6.72;;;34.70;46.10;;;;;;5055799;28;20103;-79
2021/07/07 07:39:38;;;;;;;22.30;5.95;;;34.70;46.30;;;;;;5055737;28;20074;-80
2021/07/07 07:42:04;;;;;;;24.30;6.30;;;34.70;46.30;;;;;;5056023;28;20025;-80
2021/07/07 07:44:30;;;;;;;16.55;5.28;;;34.50;46.60;;;;;;5055504;28;20025;-79
2021/07/07 07:46:58;;;;;;;21.58;6.25;;;34.50;46.40;;;;;;5055798;28;20389;-79
2021/07/07 07:49:24;;;;;;;16.50;5.25;;;34.50;46.50;;;;;;5055534;28;20029;-78
2021/07/07 07:51:50;;;;;;;22.98;5.28;;;34.50;46.60;;;;;;5055723;28;20032;-80
2021/07/07 07:54:16;;;;;;;22.15;5.47;;;34.40;46.90;;;;;;5055632;28;20028;-80
2021/07/07 07:56:42;;;;;;;14.73;5.25;;;34.40;47.00;;;;;;5055540;28;20363;-79
2021/07/07 07:59:07;;;;;;;31.20;6.93;;;34.30;47.10;;;;;;5055057;28;20058;-79
2021/07/07 08:01:34;;;;;;;20.40;7.43;;;34.30;47.30;;;;;;5055259;28;20029;-79
2021/07/07 08:04:01;;;;;;;29.73;6.70;;;34.20;47.30;;;;;;5054661;28;20386;-79
2021/07/07 08:06:27;;;;;;;16.00;4.68;;;34.20;47.60;;;;;;5054975;28;20021;-80
2021/07/07 08:08:54;;;;;;;30.85;7.97;;;34.20;47.90;;;;;;5054994;28;20049;-79
2021/07/07 08:11:20;;;;;;;15.52;5.80;;;34.20;47.80;;;;;;5055360;28;20048;-81
2021/07/07 08:13:46;;;;;;;87.15;12.30;;;34.10;47.80;;;;;;5055425;28;20060;-80
2021/07/07 08:16:12;;;;;;;61.38;11.50;;;34.10;48.00;;;;;;5055609;28;20076;-80
2021/07/07 08:18:38;;;;;;;30.00;6.45;;;34.00;48.10;;;;;;5055317;28;20021;-79
2021/07/07 08:21:04;;;;;;;60.55;9.48;;;34.00;48.20;;;;;;5055257;28;20025;-79
2021/07/07 08:23:29;;;;;;;45.25;7.95;;;34.00;48.50;;;;;;5055227;28;20358;-80
2021/07/07 08:25:55;;;;;;;34.58;7.03;;;33.80;48.90;;;;;;5054908;28;20033;-79
2021/07/07 08:28:20;;;;;;;62.83;9.05;;;33.80;49.10;;;;;;5054745;28;20123;-78
2021/07/07 08:30:46;;;;;;;45.80;8.30;;;33.70;49.50;;;;;;5054972;28;20024;-79
2021/07/07 08:33:14;;;;;;;109.00;12.07;;;33.60;51.50;;;;;;5054813;28;20037;-81
2021/07/07 08:35:40;;;;;;;32.30;8.57;;;33.60;51.60;;;;;;5054645;28;20116;-78
2021/07/07 08:38:06;;;;;;;57.83;8.35;;;33.50;51.20;;;;;;5053968;28;20485;-79
2021/07/07 08:40:32;;;;;;;42.38;6.35;;;33.50;49.70;;;;;;5054766;28;20378;-79
2021/07/07 08:42:58;;;;;;;24.80;6.28;;;33.40;49.90;;;;;;5055001;28;20021;-80
2021/07/07 08:45:24;;;;;;;35.50;6.07;;;33.30;50.00;;;;;;5055508;28;20029;-80
2021/07/07 08:47:50;;;;;;;21.17;5.40;;;33.20;49.90;;;;;;5054887;28;20040;-79
2021/07/07 08:50:28;;;;;;;16.05;4.13;;;33.10;50.00;;;;;;5054743;28;20390;-78
2021/07/07 08:52:56;;;;;;;19.50;4.82;;;33.00;50.60;;;;;;5052770;28;20406;-79
2021/07/07 08:55:22;;;;;;;13.25;4.45;;;33.00;50.30;;;;;;5054157;28;20040;-81
2021/07/07 08:57:49;;;;;;;12.27;4.72;;;32.90;50.50;;;;;;5054014;28;20072;-80
2021/07/07 09:00:30;;;;;;;36.42;6.47;;;32.90;50.80;;;;;;5054302;28;20029;-80
2021/07/07 09:02:58;;;;;;;63.72;8.43;;;32.90;50.80;;;;;;5054258;28;20024;-81
2021/07/07 09:05:26;;;;;;;52.63;6.68;;;32.90;50.80;;;;;;5053925;28;20040;-80
2021/07/07 09:07:52;;;;;;;49.92;7.28;;;32.90;50.80;;;;;;5054130;28;20108;-78
2021/07/07 09:10:27;;;;;;;21.35;5.25;;;33.00;50.60;;;;;;5054015;28;21356;-79
2021/07/07 09:12:54;;;;;;;13.07;4.80;;;33.00;50.60;;;;;;5053719;28;20386;-79
2021/07/07 09:15:19;;;;;;;30.80;7.25;;;33.00;50.80;;;;;;5053581;28;20104;-80
2021/07/07 09:17:50;;;;;;;22.67;5.30;;;32.90;50.70;;;;;;5053681;28;20462;-80
2021/07/07 09:20:26;;;;;;;10.48;4.20;;;33.00;50.90;;;;;;5053782;28;20028;-80
2021/07/07 09:23:25;;;;;;;16.48;4.65;;;33.10;50.70;;;;;;5054117;28;20412;-80
2021/07/07 09:26:01;;;;;;;14.50;5.45;;;33.10;49.60;;;;;;5053601;28;20025;-79
2021/07/07 09:28:31;;;;;;;12.20;4.70;;;33.10;49.50;;;;;;5053702;28;20017;-79
2021/07/07 09:31:02;;;;;;;14.60;4.95;;;33.10;49.40;;;;;;5053666;28;20199;-80
2021/07/07 09:33:37;;;;;;;9.40;4.43;;;33.10;50.40;;;;;;5053549;28;20028;-79
2021/07/07 09:36:17;;;;;;;46.08;7.97;;;33.10;50.10;;;;;;5053785;28;20056;-79
2021/07/07 09:38:43;;;;;;;14.40;4.93;;;33.20;50.00;;;;;;5054003;28;20083;-79
2021/07/07 09:41:13;;;;;;;18.77;5.00;;;33.20;50.00;;;;;;5054220;28;20025;-79
2021/07/07 09:43:54;;;;;;;18.27;4.57;;;33.20;49.90;;;;;;5052587;28;20029;-80
2021/07/07 09:46:21;;;;;;;13.65;4.88;;;33.20;50.00;;;;;;5053395;28;20021;-81
2021/07/07 09:48:52;;;;;;;29.67;6.22;;;33.20;50.00;;;;;;5051844;28;20021;-79
2021/07/07 09:51:18;;;;;;;40.90;7.55;;;33.20;50.10;;;;;;5053284;28;20028;-79
2021/07/07 09:53:45;;;;;;;14.70;4.97;;;33.30;50.00;;;;;;5053430;28;20017;-79
2021/07/07 09:56:12;;;;;;;11.48;4.50;;;33.40;49.80;;;;;;5053662;28;20044;-80
2021/07/07 09:58:38;;;;;;;24.88;6.35;;;33.40;49.70;;;;;;5053777;28;20033;-79
2021/07/07 10:01:04;;;;;;;42.38;7.05;;;33.40;49.40;;;;;;5052098;28;20056;-79
2021/07/07 10:03:32;;;;;;;19.40;5.72;;;33.50;49.50;;;;;;5053408;28;20096;-79
2021/07/07 10:05:59;;;;;;;13.65;4.53;;;33.60;49.50;;;;;;5053459;28;20044;-78
2021/07/07 10:08:25;;;;;;;13.75;5.20;;;33.60;48.90;;;;;;5052303;28;20444;-79
2021/07/07 10:10:53;;;;;;;17.92;5.65;;;33.60;49.10;;;;;;5052392;28;20029;-81
2021/07/07 10:13:21;;;;;;;11.02;5.32;;;33.60;50.90;;;;;;5052731;28;20150;-78
2021/07/07 10:15:48;;;;;;;21.30;5.47;;;33.70;48.70;;;;;;5052896;28;20033;-79
2021/07/07 10:18:15;;;;;;;16.30;4.22;;;33.70;50.40;;;;;;5053196;28;20032;-79
2021/07/07 10:20:41;;;;;;;43.85;6.88;;;33.60;50.20;;;;;;5052793;28;20040;-80
2021/07/07 10:23:10;;;;;;;14.82;4.47;;;33.70;50.40;;;;;;5052671;28;20021;-78
2021/07/07 10:25:36;;;;;;;15.77;4.55;;;33.60;50.80;;;;;;5052970;28;20033;-79
2021/07/07 10:28:08;;;;;;;10.40;4.28;;;33.60;50.20;;;;;;5052245;28;20035;-79
2021/07/07 10:30:55;;;;;;;14.27;4.10;;;33.50;48.70;;;;;;5057456;28;20025;-79
2021/07/07 10:33:24;;;;;;;34.25;6.50;;;33.60;51.10;;;;;;5056098;28;20028;-79
2021/07/07 10:36:11;;;;;;;21.23;5.35;;;33.60;51.00;;;;;;5054238;28;20075;-79
2021/07/07 10:38:37;;;;;;;15.05;5.38;;;33.70;50.70;;;;;;5052546;28;20067;-80
2021/07/07 10:41:03;;;;;;;14.27;4.30;;;33.80;50.30;;;;;;5052632;28;20067;-80
2021/07/07 10:43:48;;;;;;;32.95;6.07;;;33.80;49.90;;;;;;5052530;28;20327;-78
2021/07/07 10:46:52;;;;;;;16.77;4.50;;;33.80;50.00;;;;;;5052367;28;20079;-80
2021/07/07 10:49:27;;;;;;;18.88;5.63;;;33.80;48.10;;;;;;5052912;28;20037;-81
2021/07/07 10:51:54;;;;;;;10.45;4.70;;;33.80;49.80;;;;;;5052485;28;20025;-80
2021/07/07 10:54:21;;;;;;;8.25;3.95;;;33.80;50.00;;;;;;5052916;28;20048;-79
2021/07/07 10:56:48;;;;;;;13.48;4.93;;;33.90;49.80;;;;;;5052963;28;20037;-80
2021/07/07 10:59:34;;;;;;;10.00;4.55;;;33.90;50.10;;;;;;5052931;28;20029;-80
2021/07/07 11:02:06;;;;;;;18.08;4.75;;;33.90;49.90;;;;;;5056471;28;20031;-79
2021/07/07 11:04:35;;;;;;;11.40;4.43;;;33.90;49.50;;;;;;5056738;28;20037;-79
2021/07/07 11:07:32;;;;;;;10.77;4.30;;;34.00;47.80;;;;;;5056649;28;20032;-79
2021/07/07 11:10:00;;;;;;;19.15;5.05;;;34.10;47.60;;;;;;5055972;28;20436;-81
2021/07/07 11:12:28;;;;;;;16.83;4.22;;;34.20;49.30;;;;;;5056700;28;20450;-80
2021/07/07 11:15:03;;;;;;;13.60;3.65;;;34.20;49.30;;;;;;5056653;28;20470;-79
2021/07/07 11:17:37;;;;;;;10.40;3.75;;;34.30;49.20;;;;;;5057141;28;20087;-81
2021/07/07 11:20:20;;;;;;;16.17;4.00;;;34.40;49.50;;;;;;5055410;28;20058;-78
2021/07/07 11:23:00;;;;;;;7.93;3.73;;;34.30;49.00;;;;;;5056397;28;20021;-81
2021/07/07 11:25:27;;;;;;;11.02;4.15;;;34.30;47.60;;;;;;5056242;28;20037;-79
2021/07/07 11:27:54;;;;;;;10.20;3.55;;;34.30;49.10;;;;;;5056459;28;20382;-80
2021/07/07 11:30:21;;;;;;;10.48;4.10;;;34.20;48.80;;;;;;5056353;28;20104;-81
2021/07/07 11:32:50;;;;;;;9.73;3.58;;;34.30;48.80;;;;;;5054935;28;20124;-82
2021/07/07 11:35:30;;;;;;;10.52;3.80;;;34.30;48.90;;;;;;5056073;28;20082;-81
2021/07/07 11:38:01;;;;;;;9.93;3.17;;;34.40;49.50;;;;;;5055431;28;20116;-80
2021/07/07 11:40:28;;;;;;;15.20;3.50;;;34.50;48.90;;;;;;5055832;28;20017;-80
2021/07/07 11:42:59;;;;;;;11.18;3.30;;;34.60;48.70;;;;;;5056206;28;20029;-79
2021/07/07 11:45:37;;;;;;;8.75;2.90;;;34.50;47.30;;;;;;5055907;28;20033;-79
2021/07/07 11:50:41;;;;;;;6.32;3.15;;;34.50;46.60;;;;;;5055639;28;20029;-79
2021/07/07 11:53:08;;;;;;;6.75;3.25;;;34.50;46.40;;;;;;5055882;28;20156;-79
2021/07/07 11:56:05;;;;;;;7.85;3.25;;;34.40;46.50;;;;;;5055270;28;20021;-78
2021/07/07 11:58:45;;;;;;;7.65;3.13;;;34.40;47.00;;;;;;5055429;28;20043;-78
2021/07/07 12:01:19;;;;;;;8.18;3.17;;;34.50;46.70;;;;;;5055530;28;20017;-80
2021/07/07 12:04:06;;;;;;;5.82;2.60;;;34.40;46.70;;;;;;5055500;28;20021;-79
2021/07/07 12:06:34;;;;;;;6.05;2.67;;;34.40;46.30;;;;;;5055359;28;20013;-77
2021/07/07 12:09:02;;;;;;;6.85;2.78;;;34.40;46.00;;;;;;5055057;28;20050;-79
2021/07/07 12:11:28;;;;;;;10.80;2.85;;;34.40;45.90;;;;;;5053797;28;20035;-78
2021/07/07 12:13:56;;;;;;;6.38;2.67;;;34.50;46.00;;;;;;5055004;28;20032;-79
2021/07/07 12:16:35;;;;;;;6.05;2.53;;;34.50;45.50;;;;;;5054627;28;20346;-79
2021/07/07 12:19:02;;;;;;;5.63;2.92;;;34.50;46.30;;;;;;5055150;28;20025;-78
2021/07/07 12:21:38;;;;;;;6.07;2.67;;;34.50;45.40;;;;;;5054575;28;20450;-79
2021/07/07 12:24:06;;;;;;;8.27;2.70;;;34.50;44.70;;;;;;5055105;28;20025;-79
2021/07/07 12:26:38;;;;;;;7.13;2.83;;;34.60;44.80;;;;;;5054721;28;20036;-78
2021/07/07 12:29:07;;;;;;;7.88;2.55;;;34.60;44.50;;;;;;5054813;28;20082;-79
2021/07/07 12:31:37;;;;;;;9.10;2.85;;;34.60;44.40;;;;;;5054992;28;20033;-78
2021/07/07 12:34:05;;;;;;;7.68;2.60;;;34.70;44.50;;;;;;5054795;28;20096;-78
2021/07/07 12:36:33;;;;;;;5.70;2.47;;;34.70;44.50;;;;;;5054906;28;20038;-80
2021/07/07 12:39:18;;;;;;;5.85;2.30;;;34.70;44.50;;;;;;5054305;28;20017;-79
2021/07/07 12:41:48;;;;;;;6.30;2.10;;;34.80;44.50;;;;;;5055910;28;20047;-79
2021/07/07 12:44:20;;;;;;;6.80;2.30;;;34.80;44.30;;;;;;5053400;28;20013;-78